createdAt,value
2022-12-22T00:01:04.886Z,4.25
2022-12-22T00:03:50.469Z,3.67
2022-12-22T00:06:36.004Z,2.10
2022-12-22T00:09:21.555Z,2.70
2022-12-22T00:12:08.071Z,2.55
2022-12-22T00:14:53.539Z,6.82
2022-12-22T00:17:43.524Z,4.00
2022-12-22T00:20:33.468Z,2.28
2022-12-22T00:23:18.918Z,3.05
2022-12-22T00:26:05.020Z,3.08
2022-12-22T00:28:52.776Z,3.60
2022-12-22T00:31:39.091Z,2.22
2022-12-22T00:34:32.465Z,2.70
2022-12-22T00:37:18.364Z,3.63
2022-12-22T00:40:03.679Z,4.15
2022-12-22T00:42:50.364Z,4.30
2022-12-22T00:45:37.634Z,4.72
2022-12-22T00:48:24.996Z,4.65
2022-12-22T00:51:10.290Z,5.05
2022-12-22T00:53:55.758Z,6.35
2022-12-22T00:56:41.074Z,4.10
2022-12-22T00:59:28.402Z,4.38
2022-12-22T01:02:15.496Z,7.70
2022-12-22T01:05:01.002Z,3.20
2022-12-22T01:07:46.285Z,6.65
2022-12-22T01:10:32.991Z,3.28
2022-12-22T01:13:18.796Z,3.97
2022-12-22T01:16:04.128Z,3.00
2022-12-22T01:18:50.753Z,3.88
2022-12-22T01:21:37.026Z,3.45
2022-12-22T01:24:28.893Z,6.03
2022-12-22T01:27:14.259Z,3.03
2022-12-22T01:29:59.524Z,3.90
2022-12-22T01:32:45.020Z,5.85
2022-12-22T01:35:37.555Z,4.50
2022-12-22T01:38:23.063Z,3.10
2022-12-22T01:41:09.307Z,3.72
2022-12-22T01:43:55.076Z,3.65
2022-12-22T01:46:43.576Z,3.47
2022-12-22T01:49:33.160Z,3.47
2022-12-22T01:52:20.386Z,4.40
2022-12-22T01:55:06.943Z,3.00
2022-12-22T01:57:52.636Z,5.13
2022-12-22T02:00:38.148Z,3.65
2022-12-22T02:03:33.956Z,3.10
2022-12-22T02:06:32.796Z,2.92
2022-12-22T02:09:32.452Z,2.15
2022-12-22T02:12:24.351Z,5.78
2022-12-22T02:15:18.663Z,3.47
2022-12-22T02:18:16.276Z,5.43
2022-12-22T02:21:05.965Z,3.92
2022-12-22T02:24:06.776Z,9.13
2022-12-22T02:26:55.324Z,2.63
2022-12-22T02:29:45.970Z,2.83
2022-12-22T02:32:31.124Z,2.35
2022-12-22T02:35:16.946Z,2.80
2022-12-22T02:38:11.417Z,2.55
2022-12-22T02:41:05.656Z,2.00
2022-12-22T02:44:08.717Z,3.45
2022-12-22T02:47:03.160Z,2.55
2022-12-22T02:49:58.028Z,3.85
2022-12-22T02:52:48.260Z,3.15
2022-12-22T02:55:34.168Z,3.70
2022-12-22T02:58:19.527Z,1.75
2022-12-22T03:01:06.674Z,1.70
2022-12-22T03:03:52.161Z,1.92
2022-12-22T03:06:37.571Z,2.50
2022-12-22T03:09:23.307Z,2.35
2022-12-22T03:12:08.722Z,3.17
2022-12-22T03:14:54.101Z,8.38
2022-12-22T03:17:40.694Z,2.42
2022-12-22T03:20:27.337Z,3.15
2022-12-22T03:23:12.699Z,2.58
2022-12-22T03:25:53.092Z,2.45
2022-12-22T03:28:21.875Z,2.05
2022-12-22T03:30:56.267Z,3.40
2022-12-22T03:33:25.426Z,1.65
2022-12-22T03:35:53.268Z,2.65
2022-12-22T03:38:21.231Z,2.30
2022-12-22T03:40:48.960Z,2.10
2022-12-22T03:43:35.610Z,3.00
2022-12-22T03:46:23.766Z,1.70
2022-12-22T03:49:06.779Z,1.55
2022-12-22T03:51:35.147Z,1.33
2022-12-22T03:54:02.823Z,2.97
2022-12-22T03:56:30.824Z,1.67
2022-12-22T03:58:59.636Z,3.25
2022-12-22T04:01:27.468Z,1.45
2022-12-22T04:03:56.591Z,1.63
2022-12-22T04:06:24.769Z,1.52
2022-12-22T04:08:52.627Z,2.00
2022-12-22T04:11:38.041Z,2.33
2022-12-22T04:14:05.788Z,5.20
2022-12-22T04:16:33.869Z,2.85
2022-12-22T04:19:02.950Z,1.77
2022-12-22T04:21:30.680Z,2.20
2022-12-22T04:23:58.304Z,2.25
2022-12-22T04:26:26.468Z,1.83
2022-12-22T04:28:54.639Z,3.85
2022-12-22T04:31:23.126Z,6.75
2022-12-22T04:33:51.400Z,2.30
2022-12-22T04:36:20.935Z,2.88
2022-12-22T04:38:48.604Z,3.35
2022-12-22T04:41:16.391Z,2.53
2022-12-22T04:43:43.976Z,5.35
2022-12-22T04:46:11.697Z,2.38
2022-12-22T04:48:39.455Z,2.65
2022-12-22T04:51:07.712Z,1.48
2022-12-22T04:53:36.797Z,1.85
2022-12-22T04:56:07.345Z,2.38
2022-12-22T04:58:35.842Z,5.00
2022-12-22T05:01:11.249Z,2.40
2022-12-22T05:03:39.073Z,3.95
2022-12-22T05:06:07.315Z,1.92
2022-12-22T05:08:37.469Z,3.65
2022-12-22T05:11:05.453Z,1.77
2022-12-22T05:13:33.644Z,3.80
2022-12-22T05:16:06.096Z,4.00
2022-12-22T05:18:34.133Z,5.00
2022-12-22T05:21:04.604Z,3.53
2022-12-22T05:23:32.211Z,2.80
2022-12-22T05:26:03.041Z,2.88
2022-12-22T05:28:32.156Z,4.47
2022-12-22T05:31:04.916Z,5.13
2022-12-22T05:33:32.686Z,3.92
2022-12-22T05:36:00.435Z,2.17
2022-12-22T05:38:28.113Z,1.33
2022-12-22T05:41:03.280Z,2.33
2022-12-22T05:43:33.307Z,2.85
2022-12-22T05:46:03.375Z,14.93
2022-12-22T05:48:37.388Z,6.23
2022-12-22T05:51:06.738Z,4.40
2022-12-22T05:53:34.378Z,5.53
2022-12-22T05:56:02.784Z,4.32
2022-12-22T05:58:30.500Z,3.57
2022-12-22T06:01:00.769Z,2.00
2022-12-22T06:03:29.265Z,4.93
2022-12-22T06:05:57.917Z,4.90
2022-12-22T06:08:26.077Z,3.25
2022-12-22T06:10:55.240Z,4.00
2022-12-22T06:13:23.020Z,4.15
2022-12-22T06:15:51.307Z,4.85
2022-12-22T06:18:20.420Z,5.20
2022-12-22T06:20:48.327Z,2.17
2022-12-22T06:23:15.927Z,4.13
2022-12-22T06:25:43.555Z,7.90
2022-12-22T06:28:11.196Z,2.40
2022-12-22T06:30:38.828Z,4.18
2022-12-22T06:33:06.764Z,4.97
2022-12-22T06:35:37.740Z,2.50
2022-12-22T06:38:06.073Z,3.28
2022-12-22T06:40:33.919Z,3.13
2022-12-22T06:43:10.351Z,7.28
2022-12-22T06:45:40.424Z,5.68
2022-12-22T06:48:09.757Z,8.73
2022-12-22T06:50:39.029Z,10.30
2022-12-22T06:53:06.933Z,9.57
2022-12-22T06:55:34.682Z,8.77
2022-12-22T06:58:02.300Z,5.57
2022-12-22T07:00:30.176Z,3.23
2022-12-22T07:02:58.026Z,8.30
2022-12-22T07:05:26.388Z,8.23
2022-12-22T07:07:55.373Z,7.10
2022-12-22T07:10:43.037Z,7.77
2022-12-22T07:13:20.406Z,7.07
2022-12-22T07:15:55.283Z,7.50
2022-12-22T07:18:27.532Z,7.10
2022-12-22T07:20:55.553Z,10.97
2022-12-22T07:23:24.787Z,8.83
2022-12-22T07:25:52.546Z,6.10
2022-12-22T07:28:21.321Z,10.27
2022-12-22T07:30:49.324Z,10.07
2022-12-22T07:33:17.085Z,9.63
2022-12-22T07:35:44.991Z,7.32
2022-12-22T07:38:12.739Z,5.33
2022-12-22T07:40:43.113Z,10.45
2022-12-22T07:43:10.985Z,8.10
2022-12-22T07:45:39.297Z,15.97
2022-12-22T07:48:27.478Z,4.90
2022-12-22T07:50:55.309Z,5.10
2022-12-22T07:53:23.113Z,10.83
2022-12-22T07:55:52.157Z,6.43
2022-12-22T07:58:19.852Z,8.10
2022-12-22T08:00:47.988Z,8.43
2022-12-22T08:03:15.791Z,13.27
2022-12-22T08:05:44.531Z,6.15
2022-12-22T08:08:12.281Z,14.63
2022-12-22T08:10:39.986Z,6.80
2022-12-22T08:13:09.108Z,5.28
2022-12-22T08:15:38.003Z,5.50
2022-12-22T08:18:05.824Z,16.45
2022-12-22T08:20:33.549Z,8.80
2022-12-22T08:23:01.213Z,7.25
2022-12-22T08:25:28.947Z,6.97
2022-12-22T08:27:58.029Z,9.40
2022-12-22T08:30:27.122Z,9.85
2022-12-22T08:32:54.826Z,12.95
2022-12-22T08:35:22.754Z,14.95
2022-12-22T08:37:51.183Z,9.03
2022-12-22T08:40:22.330Z,8.05
2022-12-22T08:42:53.312Z,11.95
2022-12-22T08:45:22.256Z,7.57
2022-12-22T08:47:51.280Z,6.03
2022-12-22T08:50:19.256Z,7.47
2022-12-22T08:52:47.045Z,13.07
2022-12-22T08:55:14.843Z,6.93
2022-12-22T08:57:42.899Z,11.18
2022-12-22T09:00:13.140Z,14.75
2022-12-22T09:02:41.178Z,9.57
2022-12-22T09:05:10.593Z,5.90
2022-12-22T09:07:38.269Z,7.60
2022-12-22T09:10:06.637Z,12.93
2022-12-22T09:12:35.226Z,5.47
2022-12-22T09:15:02.948Z,8.87
2022-12-22T09:17:30.608Z,7.70
2022-12-22T09:19:58.404Z,5.20
2022-12-22T09:22:28.042Z,17.53
2022-12-22T09:24:56.610Z,11.73
2022-12-22T09:27:24.253Z,10.93
2022-12-22T09:29:51.930Z,4.88
2022-12-22T09:32:19.669Z,7.85
2022-12-22T09:34:48.746Z,6.38
2022-12-22T09:37:16.763Z,12.70
2022-12-22T09:39:46.820Z,6.78
2022-12-22T09:42:16.365Z,9.77
2022-12-22T09:44:46.497Z,7.50
2022-12-22T09:47:19.419Z,9.50
2022-12-22T09:49:47.214Z,10.25
2022-12-22T09:52:24.850Z,15.35
2022-12-22T09:54:53.907Z,4.68
2022-12-22T09:57:22.013Z,13.35
2022-12-22T09:59:49.672Z,8.07
2022-12-22T10:02:27.618Z,13.45
2022-12-22T10:05:11.690Z,6.35
2022-12-22T10:07:42.396Z,5.82
2022-12-22T10:10:24.894Z,9.10
2022-12-22T10:12:57.339Z,6.07
2022-12-22T10:15:25.567Z,8.63
2022-12-22T10:17:55.339Z,7.85
2022-12-22T10:20:26.331Z,7.10
2022-12-22T10:22:56.869Z,8.88
2022-12-22T10:25:51.895Z,3.47
2022-12-22T10:28:23.213Z,5.13
2022-12-22T10:30:51.331Z,5.93
2022-12-22T10:33:20.054Z,9.35
2022-12-22T10:35:51.903Z,6.80
2022-12-22T10:38:26.718Z,5.78
2022-12-22T10:41:02.453Z,8.00
2022-12-22T10:43:33.740Z,2.97
2022-12-22T10:46:03.456Z,7.43
2022-12-22T10:48:34.587Z,6.05
2022-12-22T10:51:03.676Z,11.05
2022-12-22T10:53:44.514Z,4.30
2022-12-22T10:56:23.136Z,6.53
2022-12-22T10:58:53.372Z,14.40
2022-12-22T11:01:27.608Z,8.95
2022-12-22T11:03:55.408Z,17.00
2022-12-22T11:06:23.331Z,6.45
2022-12-22T11:08:52.197Z,4.78
2022-12-22T11:11:36.047Z,3.85
2022-12-22T11:14:13.969Z,2.88
2022-12-22T11:16:48.937Z,6.17
2022-12-22T11:19:40.288Z,4.80
2022-12-22T11:22:17.365Z,6.83
2022-12-22T11:24:58.815Z,4.30
2022-12-22T11:27:45.777Z,4.37
2022-12-22T11:30:16.905Z,4.23
2022-12-22T11:33:01.205Z,12.23
2022-12-22T11:35:43.311Z,7.20
2022-12-22T11:38:21.604Z,3.67
2022-12-22T11:40:59.277Z,4.40
2022-12-22T11:43:37.476Z,3.23
2022-12-22T11:46:22.583Z,4.67
2022-12-22T11:49:03.410Z,3.80
2022-12-22T11:51:47.877Z,2.70
2022-12-22T11:54:49.998Z,6.23
2022-12-22T11:57:28.093Z,2.10
2022-12-22T12:00:04.166Z,5.67
2022-12-22T12:02:57.556Z,1.93
2022-12-22T12:05:41.764Z,5.53
2022-12-22T12:08:22.444Z,4.67
2022-12-22T12:10:54.160Z,4.60
2022-12-22T12:13:36.748Z,5.87
2022-12-22T12:16:18.386Z,4.70
2022-12-22T12:19:00.430Z,2.10
2022-12-22T12:21:29.532Z,2.73
2022-12-22T12:24:27.435Z,6.03
2022-12-22T12:27:03.203Z,4.93
2022-12-22T12:29:38.436Z,3.57
2022-12-22T12:32:14.046Z,8.80
2022-12-22T12:34:47.606Z,4.40
2022-12-22T12:37:26.373Z,5.83
2022-12-22T12:40:02.601Z,6.97
2022-12-22T12:42:34.129Z,4.17
2022-12-22T12:45:02.499Z,4.67
2022-12-22T12:47:33.739Z,3.77
2022-12-22T12:50:31.862Z,3.10
2022-12-22T12:53:10.737Z,3.20
2022-12-22T12:56:05.973Z,4.10
2022-12-22T12:58:52.818Z,3.83
2022-12-22T13:01:58.159Z,5.83
2022-12-22T13:05:14.804Z,4.67
2022-12-22T13:08:29.712Z,3.53
2022-12-22T13:12:11.369Z,3.93
2022-12-22T13:14:58.587Z,2.30
2022-12-22T13:17:41.954Z,3.53
2022-12-22T13:20:16.371Z,3.03
2022-12-22T13:22:44.976Z,3.97
2022-12-22T13:25:17.147Z,2.60
2022-12-22T13:27:46.621Z,4.53
2022-12-22T13:30:16.497Z,10.27
2022-12-22T13:32:47.042Z,4.07
2022-12-22T13:35:30.778Z,1.83
2022-12-22T13:37:59.935Z,2.90
2022-12-22T13:40:31.436Z,5.07
2022-12-22T13:43:04.000Z,2.40
2022-12-22T13:45:38.479Z,6.13
2022-12-22T13:48:13.325Z,7.27
2022-12-22T13:50:46.198Z,6.70
2022-12-22T13:53:49.380Z,4.10
2022-12-22T13:56:11.755Z,3.37
2022-12-22T13:58:46.084Z,4.43
2022-12-22T14:01:19.657Z,5.20
2022-12-22T14:04:00.256Z,7.43
2022-12-22T14:06:31.631Z,1.53
2022-12-22T14:09:12.803Z,2.87
2022-12-22T14:11:45.668Z,3.07
2022-12-22T14:14:23.954Z,4.40
2022-12-22T14:16:54.275Z,4.93
2022-12-22T14:19:23.885Z,5.20
2022-12-22T14:21:59.814Z,4.03
2022-12-22T14:24:33.209Z,4.13
2022-12-22T14:27:04.345Z,5.93
2022-12-22T14:29:33.793Z,6.37
2022-12-22T14:32:04.269Z,7.13
2022-12-22T14:34:34.210Z,8.77
2022-12-22T14:37:03.429Z,6.57
2022-12-22T14:39:34.621Z,8.90
2022-12-22T14:42:05.208Z,4.47
2022-12-22T14:44:37.855Z,11.80
2022-12-22T14:47:15.412Z,6.03
2022-12-22T14:49:48.996Z,10.20
2022-12-22T14:52:23.063Z,8.00
2022-12-22T14:54:53.772Z,7.20
2022-12-22T14:57:36.072Z,8.77
2022-12-22T15:00:10.643Z,3.33
2022-12-22T15:02:41.127Z,6.30
2022-12-22T15:05:14.321Z,9.20
2022-12-22T15:08:09.378Z,9.80
2022-12-22T15:10:40.041Z,10.00
2022-12-22T15:13:13.273Z,6.83
2022-12-22T15:15:42.418Z,12.80
2022-12-22T15:18:14.737Z,9.33
2022-12-22T15:20:42.747Z,12.53
2022-12-22T15:23:14.284Z,6.80
2022-12-22T15:25:42.093Z,9.57
2022-12-22T15:28:10.353Z,6.77
2022-12-22T15:30:38.421Z,8.93
2022-12-22T15:33:12.822Z,7.07
2022-12-22T15:35:41.277Z,6.33
2022-12-22T15:38:13.838Z,6.70
2022-12-22T15:40:41.860Z,8.53
2022-12-22T15:43:22.332Z,11.48
2022-12-22T15:45:57.662Z,6.43
2022-12-22T15:48:29.854Z,9.80
2022-12-22T15:50:58.459Z,5.20
2022-12-22T15:53:26.332Z,7.03
2022-12-22T15:55:55.821Z,7.65
2022-12-22T15:58:27.241Z,2.85
2022-12-22T16:00:55.049Z,7.90
2022-12-22T16:03:22.943Z,9.43
2022-12-22T16:05:52.898Z,9.85
2022-12-22T16:08:26.938Z,9.50
2022-12-22T16:10:54.651Z,6.40
2022-12-22T16:13:27.503Z,7.55
2022-12-22T16:15:57.402Z,10.70
2022-12-22T16:18:25.564Z,7.40
2022-12-22T16:20:55.644Z,6.93
2022-12-22T16:23:39.896Z,8.40
2022-12-22T16:26:07.637Z,9.23
2022-12-22T16:28:35.321Z,10.45
2022-12-22T16:31:03.048Z,10.00
2022-12-22T16:33:30.801Z,8.38
2022-12-22T16:35:59.888Z,15.00
2022-12-22T16:38:27.540Z,9.60
2022-12-22T16:40:55.246Z,18.27
2022-12-22T16:46:15.607Z,12.07
2022-12-22T16:48:46.328Z,9.63
2022-12-22T16:51:20.215Z,7.27
2022-12-22T16:53:47.925Z,12.35
2022-12-22T16:56:19.005Z,9.93
2022-12-22T16:58:47.285Z,9.93
2022-12-22T17:01:32.937Z,19.88
2022-12-22T17:04:07.808Z,14.85
2022-12-22T17:06:38.264Z,6.10
2022-12-22T17:09:12.422Z,10.32
2022-12-22T17:11:40.388Z,9.80
2022-12-22T17:14:16.228Z,10.60
2022-12-22T17:16:43.997Z,10.93
2022-12-22T17:19:12.306Z,14.70
2022-12-22T17:21:41.380Z,14.13
2022-12-22T17:24:14.023Z,16.15
2022-12-22T17:26:42.611Z,21.13
2022-12-22T17:29:15.563Z,23.85
2022-12-22T17:31:43.353Z,15.90
2022-12-22T17:34:16.763Z,15.48
2022-12-22T17:36:47.637Z,15.98
2022-12-22T17:39:17.142Z,8.48
2022-12-22T17:41:48.965Z,17.60
2022-12-22T17:44:22.301Z,18.17
2022-12-22T17:46:50.719Z,13.18
2022-12-22T17:49:20.124Z,14.07
2022-12-22T17:51:49.561Z,9.43
2022-12-22T17:54:23.365Z,11.95
2022-12-22T17:56:51.141Z,16.47
2022-12-22T17:59:18.967Z,16.00
2022-12-22T18:01:46.791Z,11.82
2022-12-22T18:04:14.507Z,13.73
2022-12-22T18:06:43.543Z,25.48
2022-12-22T18:09:19.590Z,12.60
2022-12-22T18:11:47.383Z,25.25
2022-12-22T18:14:16.140Z,13.65
2022-12-22T18:16:44.212Z,14.00
2022-12-22T18:19:11.999Z,16.77
2022-12-22T18:21:39.776Z,14.98
2022-12-22T18:24:10.963Z,17.58
2022-12-22T18:26:40.068Z,21.98
2022-12-22T18:29:14.210Z,15.23
2022-12-22T18:31:43.835Z,26.67
2022-12-22T18:34:11.879Z,12.00
2022-12-22T18:36:42.241Z,13.20
2022-12-22T18:39:17.778Z,13.15
2022-12-22T18:41:47.670Z,14.55
2022-12-22T18:44:17.681Z,12.85
2022-12-22T18:46:45.534Z,22.92
2022-12-22T18:49:13.476Z,19.85
2022-12-22T18:51:41.209Z,20.80
2022-12-22T18:54:22.318Z,24.00
2022-12-22T18:56:51.362Z,27.23
2022-12-22T18:59:24.200Z,15.70
2022-12-22T19:01:52.619Z,17.45
2022-12-22T19:04:20.783Z,17.17
2022-12-22T19:06:48.477Z,14.50
2022-12-22T19:09:16.959Z,12.63
2022-12-22T19:11:45.021Z,28.75
2022-12-22T19:14:19.662Z,13.63
2022-12-22T19:16:48.510Z,12.38
2022-12-22T19:19:21.152Z,12.88
2022-12-22T19:21:49.558Z,24.40
2022-12-22T19:24:17.447Z,9.82
2022-12-22T19:26:45.236Z,14.98
2022-12-22T19:29:15.462Z,19.35
2022-12-22T19:31:45.307Z,10.70
2022-12-22T19:34:17.427Z,13.05
2022-12-22T19:36:45.115Z,15.25
2022-12-22T19:39:12.768Z,18.70
2022-12-22T19:41:44.631Z,15.25
2022-12-22T19:44:19.733Z,7.35
2022-12-22T19:46:49.453Z,15.75
2022-12-22T19:49:19.541Z,9.07
2022-12-22T19:51:47.302Z,15.60
2022-12-22T19:54:15.378Z,12.13
2022-12-22T19:56:44.939Z,14.52
2022-12-22T19:59:28.251Z,9.77
2022-12-22T20:01:59.417Z,17.60
2022-12-22T20:04:27.584Z,18.20
2022-12-22T20:06:55.318Z,9.38
2022-12-22T20:09:23.019Z,15.43
2022-12-22T20:11:50.692Z,12.30
2022-12-22T20:14:19.563Z,12.82
2022-12-22T20:16:47.447Z,11.70
2022-12-22T20:19:17.236Z,9.90
2022-12-22T20:21:45.422Z,11.90
2022-12-22T20:24:21.759Z,11.65
2022-12-22T20:26:54.140Z,9.02
2022-12-22T20:29:22.680Z,15.77
2022-12-22T20:31:50.343Z,11.43
2022-12-22T20:34:19.715Z,14.95
2022-12-22T20:36:47.605Z,12.80
2022-12-22T20:39:18.851Z,14.88
2022-12-22T20:41:52.574Z,11.38
2022-12-22T20:44:21.397Z,12.40
2022-12-22T20:46:49.224Z,9.60
2022-12-22T20:49:17.680Z,12.02
2022-12-22T20:51:46.949Z,9.80
2022-12-22T20:54:15.295Z,12.93
2022-12-22T20:56:46.058Z,11.10
2022-12-22T20:59:17.170Z,8.18
2022-12-22T21:01:45.372Z,10.48
2022-12-22T21:04:16.412Z,6.82
2022-12-22T21:06:50.081Z,8.88
2022-12-22T21:09:18.824Z,35.47
2022-12-22T21:11:47.000Z,8.60
2022-12-22T21:14:15.094Z,8.10
2022-12-22T21:16:43.340Z,7.55
2022-12-22T21:19:19.372Z,7.55
2022-12-22T21:21:48.944Z,6.38
2022-12-22T21:24:18.546Z,11.93
2022-12-22T21:26:49.944Z,6.55
2022-12-22T21:29:21.430Z,8.73
2022-12-22T21:31:49.201Z,5.53
2022-12-22T21:34:17.554Z,5.85
2022-12-22T21:36:49.991Z,4.05
2022-12-22T21:39:24.750Z,6.70
2022-12-22T21:42:01.664Z,4.05
2022-12-22T21:44:30.229Z,5.43
2022-12-22T21:46:58.656Z,9.60
2022-12-22T21:49:28.362Z,8.68
2022-12-22T21:51:57.561Z,7.35
2022-12-22T21:54:26.678Z,6.45
2022-12-22T21:56:55.346Z,7.03
2022-12-22T21:59:23.819Z,6.47
2022-12-22T22:01:53.334Z,9.77
2022-12-22T22:04:21.727Z,10.23
2022-12-22T22:06:49.520Z,10.10
2022-12-22T22:09:18.578Z,11.95
2022-12-22T22:12:03.994Z,12.85
2022-12-22T22:14:31.599Z,7.30
2022-12-22T22:16:59.266Z,7.13
2022-12-22T22:19:26.919Z,4.55
2022-12-22T22:21:54.561Z,3.80
2022-12-22T22:24:23.587Z,4.38
2022-12-22T22:26:51.610Z,5.97
2022-12-22T22:29:19.583Z,9.55
2022-12-22T22:31:47.300Z,6.28
2022-12-22T22:34:15.260Z,5.32
2022-12-22T22:36:43.025Z,7.38
2022-12-22T22:39:10.977Z,9.98
2022-12-22T22:41:43.528Z,6.40
2022-12-22T22:44:11.710Z,5.93
2022-12-22T22:46:39.523Z,7.28
2022-12-22T22:49:07.760Z,9.20
2022-12-22T22:51:35.500Z,10.23
2022-12-22T22:54:03.564Z,5.95
2022-12-22T22:56:31.228Z,4.30
2022-12-22T22:59:00.921Z,7.07
2022-12-22T23:01:28.649Z,8.68
2022-12-22T23:03:56.385Z,6.60
2022-12-22T23:06:24.409Z,5.25
2022-12-22T23:08:52.035Z,2.70
2022-12-22T23:11:19.732Z,1.83
2022-12-22T23:13:47.352Z,3.03
2022-12-22T23:16:16.561Z,10.75
2022-12-22T23:18:44.260Z,5.80
2022-12-22T23:21:12.134Z,3.70
2022-12-22T23:23:39.789Z,3.08
2022-12-22T23:26:07.868Z,4.60
2022-12-22T23:28:35.528Z,6.30
2022-12-22T23:31:03.175Z,2.92
2022-12-22T23:33:33.332Z,3.00
2022-12-22T23:36:00.912Z,2.20
2022-12-22T23:38:28.584Z,2.80
2022-12-22T23:41:03.358Z,6.45
2022-12-22T23:43:31.467Z,6.28
2022-12-22T23:45:59.236Z,3.55
2022-12-22T23:48:27.023Z,8.00
2022-12-22T23:50:56.033Z,2.35
2022-12-22T23:53:24.418Z,6.57
2022-12-22T23:55:52.096Z,8.20
2022-12-22T23:58:20.084Z,4.00
